createdAt,value
2018-07-08T00:01:03.088Z,72.60
2018-07-08T00:03:35.438Z,65.60
2018-07-08T00:06:08.284Z,68.60
2018-07-08T00:08:41.627Z,70.60
2018-07-08T00:11:13.927Z,74.40
2018-07-08T00:13:46.928Z,73.40
2018-07-08T00:16:20.047Z,73.20
2018-07-08T00:18:53.004Z,66.00
2018-07-08T00:21:25.527Z,73.40
2018-07-08T00:23:58.348Z,76.60
2018-07-08T00:26:31.371Z,74.80
2018-07-08T00:29:04.846Z,72.40
2018-07-08T00:31:37.708Z,74.40
2018-07-08T00:34:10.615Z,71.00
2018-07-08T00:36:42.988Z,72.40
2018-07-08T00:39:15.140Z,71.60
2018-07-08T00:41:48.158Z,75.40
2018-07-08T00:44:20.891Z,73.40
2018-07-08T00:46:53.716Z,73.40
2018-07-08T00:49:26.269Z,74.40
2018-07-08T00:51:59.085Z,70.00
2018-07-08T00:54:31.636Z,71.80
2018-07-08T00:57:04.838Z,73.20
2018-07-08T00:59:37.744Z,71.60
2018-07-08T01:02:10.826Z,73.20
2018-07-08T01:04:43.193Z,76.80
2018-07-08T01:07:16.026Z,77.60
2018-07-08T01:09:48.680Z,77.80
2018-07-08T01:12:21.563Z,75.80
2018-07-08T01:14:54.298Z,81.40
2018-07-08T01:17:26.977Z,77.40
2018-07-08T01:19:59.350Z,72.60
2018-07-08T01:22:32.433Z,78.60
2018-07-08T01:25:12.278Z,69.80
2018-07-08T01:27:45.241Z,77.00
2018-07-08T01:30:18.375Z,80.40
2018-07-08T01:32:51.107Z,76.00
2018-07-08T01:35:23.669Z,72.40
2018-07-08T01:37:56.841Z,83.00
2018-07-08T01:40:29.019Z,81.00
2018-07-08T01:43:01.678Z,79.20
2018-07-08T01:45:34.411Z,76.20
2018-07-08T01:48:07.517Z,74.20
2018-07-08T01:50:40.108Z,75.40
2018-07-08T01:53:13.495Z,74.60
2018-07-08T01:55:46.315Z,76.60
2018-07-08T01:58:19.647Z,74.80
2018-07-08T02:00:51.698Z,74.60
2018-07-08T02:03:24.517Z,75.20
2018-07-08T02:05:57.585Z,69.40
2018-07-08T02:08:30.491Z,72.60
2018-07-08T02:11:03.483Z,72.00
2018-07-08T02:13:36.203Z,70.40
2018-07-08T02:16:08.899Z,72.60
2018-07-08T02:18:41.701Z,69.60
2018-07-08T02:21:14.585Z,74.20
2018-07-08T02:23:47.328Z,72.40
2018-07-08T02:26:20.023Z,73.80
2018-07-08T02:28:53.079Z,70.80
2018-07-08T02:31:25.959Z,76.60
2018-07-08T02:33:58.621Z,77.00
2018-07-08T02:36:31.393Z,74.20
2018-07-08T02:39:04.420Z,78.40
2018-07-08T02:41:37.256Z,77.00
2018-07-08T02:44:09.766Z,78.80
2018-07-08T02:46:43.617Z,71.80
2018-07-08T02:49:17.068Z,71.60
2018-07-08T02:51:50.213Z,77.40
2018-07-08T02:54:22.915Z,73.80
2018-07-08T02:56:55.625Z,70.40
2018-07-08T02:59:28.169Z,73.00
2018-07-08T03:02:00.339Z,76.80
2018-07-08T03:04:33.245Z,73.80
2018-07-08T03:07:05.465Z,78.20
2018-07-08T03:09:38.297Z,72.00
2018-07-08T03:12:10.628Z,73.80
2018-07-08T03:14:42.794Z,74.80
2018-07-08T03:17:15.883Z,76.00
2018-07-08T03:19:48.173Z,74.20
2018-07-08T03:22:20.800Z,73.40
2018-07-08T03:24:53.327Z,79.20
2018-07-08T03:27:25.740Z,70.60
2018-07-08T03:29:58.106Z,72.60
2018-07-08T03:32:30.620Z,57.80
2018-07-08T03:35:03.173Z,72.40
2018-07-08T03:37:35.698Z,69.20
2018-07-08T03:40:07.790Z,66.60
2018-07-08T03:42:39.843Z,78.20
2018-07-08T03:45:12.183Z,76.20
2018-07-08T03:47:44.543Z,84.40
2018-07-08T03:50:16.904Z,77.40
2018-07-08T03:52:49.868Z,75.00
2018-07-08T03:55:22.570Z,83.80
2018-07-08T03:57:54.772Z,72.60
2018-07-08T04:00:27.141Z,73.00
2018-07-08T04:02:59.182Z,83.40
2018-07-08T04:05:31.536Z,74.40
2018-07-08T04:08:03.982Z,78.80
2018-07-08T04:10:36.968Z,78.80
2018-07-08T04:13:09.389Z,81.20
2018-07-08T04:15:42.250Z,86.60
2018-07-08T04:18:14.371Z,86.00
2018-07-08T04:20:47.405Z,80.40
2018-07-08T04:23:19.400Z,79.80
2018-07-08T04:25:51.769Z,89.80
2018-07-08T04:28:24.881Z,59.00
2018-07-08T04:30:57.186Z,69.40
2018-07-08T04:33:30.406Z,74.40
2018-07-08T04:36:03.157Z,72.40
2018-07-08T04:38:35.794Z,72.00
2018-07-08T04:41:08.706Z,74.20
2018-07-08T04:43:41.057Z,74.80
2018-07-08T04:46:13.520Z,75.20
2018-07-08T04:48:45.911Z,71.60
2018-07-08T04:51:17.957Z,73.40
2018-07-08T04:53:50.785Z,67.40
2018-07-08T04:56:23.359Z,74.40
2018-07-08T04:58:55.773Z,71.00
2018-07-08T05:01:28.501Z,67.00
2018-07-08T05:04:00.842Z,65.00
2018-07-08T05:06:33.176Z,74.00
2018-07-08T05:09:05.554Z,73.20
2018-07-08T05:11:38.084Z,75.80
2018-07-08T05:14:11.077Z,65.60
2018-07-08T05:16:43.931Z,69.00
2018-07-08T05:19:16.779Z,68.40
2018-07-08T05:21:50.079Z,71.80
2018-07-08T05:24:22.102Z,75.20
2018-07-08T05:26:54.948Z,66.80
2018-07-08T05:29:27.553Z,67.40
2018-07-08T05:31:59.862Z,72.20
2018-07-08T05:34:32.513Z,69.40
2018-07-08T05:37:05.127Z,76.60
2018-07-08T05:39:37.424Z,65.80
2018-07-08T05:42:09.923Z,69.80
2018-07-08T05:44:42.683Z,70.80
2018-07-08T05:47:15.726Z,71.60
2018-07-08T05:49:48.254Z,70.80
2018-07-08T05:52:20.981Z,60.00
2018-07-08T05:54:53.105Z,71.00
2018-07-08T05:57:26.250Z,66.00
2018-07-08T05:59:58.683Z,65.60
2018-07-08T06:02:31.144Z,66.60
2018-07-08T06:05:03.571Z,66.80
2018-07-08T06:07:37.149Z,67.60
2018-07-08T06:10:10.185Z,67.00
2018-07-08T06:12:43.067Z,65.20
2018-07-08T06:15:16.717Z,66.40
2018-07-08T06:17:49.600Z,62.20
2018-07-08T06:20:21.686Z,67.60
2018-07-08T06:22:54.303Z,59.00
2018-07-08T06:25:26.618Z,60.20
2018-07-08T06:27:59.768Z,66.20
2018-07-08T06:30:32.247Z,63.60
2018-07-08T06:33:05.247Z,57.60
2018-07-08T06:35:37.883Z,61.40
2018-07-08T06:38:10.306Z,56.60
2018-07-08T06:40:43.134Z,49.40
2018-07-08T06:43:15.539Z,59.20
2018-07-08T06:45:47.901Z,59.80
2018-07-08T06:48:20.772Z,60.40
2018-07-08T06:50:52.969Z,63.00
2018-07-08T06:53:26.129Z,60.40
2018-07-08T06:55:58.567Z,53.20
2018-07-08T06:58:31.508Z,51.40
2018-07-08T07:01:03.723Z,54.40
2018-07-08T07:03:36.621Z,52.00
2018-07-08T07:06:09.519Z,52.00
2018-07-08T07:08:42.545Z,50.80
2018-07-08T07:11:14.859Z,53.00
2018-07-08T07:13:47.836Z,52.40
2018-07-08T07:16:21.154Z,54.40
2018-07-08T07:18:53.406Z,52.20
2018-07-08T07:21:26.269Z,56.60
2018-07-08T07:23:58.762Z,53.00
2018-07-08T07:26:31.825Z,54.00
2018-07-08T07:29:05.003Z,53.00
2018-07-08T07:31:36.942Z,56.80
2018-07-08T07:34:09.637Z,55.40
2018-07-08T07:36:42.095Z,52.60
2018-07-08T07:39:14.743Z,53.20
2018-07-08T07:41:46.840Z,53.20
2018-07-08T07:44:19.843Z,51.00
2018-07-08T07:46:52.107Z,56.00
2018-07-08T07:49:24.574Z,57.60
2018-07-08T07:51:56.981Z,55.20
2018-07-08T07:54:29.497Z,56.80
2018-07-08T07:57:01.924Z,55.40
2018-07-08T07:59:34.370Z,54.40
2018-07-08T08:02:07.066Z,62.40
2018-07-08T08:04:39.662Z,60.60
2018-07-08T08:07:12.400Z,55.60
2018-07-08T08:09:45.321Z,57.00
2018-07-08T08:12:17.816Z,56.40
2018-07-08T08:14:50.267Z,61.60
2018-07-08T08:17:22.677Z,58.20
2018-07-08T08:19:55.646Z,58.60
2018-07-08T08:22:28.220Z,52.40
2018-07-08T08:25:00.990Z,52.00
2018-07-08T08:27:33.647Z,55.80
2018-07-08T08:30:06.652Z,52.00
2018-07-08T08:32:39.185Z,61.20
2018-07-08T08:35:12.949Z,47.60
2018-07-08T08:37:46.401Z,54.60
2018-07-08T08:40:19.791Z,52.00
2018-07-08T08:42:52.636Z,54.00
2018-07-08T08:45:26.513Z,52.00
2018-07-08T08:47:59.136Z,54.00
2018-07-08T08:50:32.300Z,51.80
2018-07-08T08:53:04.707Z,51.60
2018-07-08T08:55:37.444Z,53.00
2018-07-08T08:58:09.711Z,53.20
2018-07-08T09:00:42.238Z,51.60
2018-07-08T09:03:15.202Z,50.60
2018-07-08T09:05:48.153Z,55.80
2018-07-08T09:08:21.109Z,54.80
2018-07-08T09:10:53.789Z,56.60
2018-07-08T09:13:31.144Z,56.00
2018-07-08T09:16:04.376Z,52.60
2018-07-08T09:18:37.434Z,53.80
2018-07-08T09:21:10.297Z,56.20
2018-07-08T09:23:42.649Z,53.00
2018-07-08T09:26:15.793Z,52.40
2018-07-08T09:28:48.304Z,54.80
2018-07-08T09:31:21.977Z,54.80
2018-07-08T09:33:54.884Z,53.80
2018-07-08T09:36:27.300Z,53.00
2018-07-08T09:39:00.256Z,54.60
2018-07-08T09:41:33.400Z,56.60
2018-07-08T09:44:07.190Z,56.60
2018-07-08T09:46:39.222Z,61.80
2018-07-08T09:49:11.927Z,55.40
2018-07-08T09:51:44.974Z,58.00
2018-07-08T09:54:18.063Z,56.20
2018-07-08T09:56:50.200Z,56.20
2018-07-08T09:59:23.070Z,55.00
2018-07-08T10:01:56.390Z,58.80
2018-07-08T10:04:28.984Z,57.20
2018-07-08T10:07:01.746Z,52.00
2018-07-08T10:09:35.348Z,54.80
2018-07-08T10:12:08.677Z,51.60
2018-07-08T10:14:40.842Z,58.20
2018-07-08T10:17:12.887Z,55.80
2018-07-08T10:19:45.425Z,55.60
2018-07-08T10:22:17.892Z,55.20
2018-07-08T10:24:50.350Z,56.40
2018-07-08T10:40:40.026Z,52.20
2018-07-08T10:43:12.255Z,48.40
2018-07-08T10:45:45.194Z,50.40
2018-07-08T10:48:17.980Z,50.00
2018-07-08T10:50:50.588Z,47.20
2018-07-08T10:53:23.658Z,45.80
2018-07-08T10:55:56.614Z,46.60
2018-07-08T10:58:29.615Z,45.00
2018-07-08T11:01:02.654Z,46.40
2018-07-08T11:03:36.197Z,45.40
2018-07-08T11:06:08.377Z,43.60
2018-07-08T11:08:41.040Z,44.20
2018-07-08T11:11:13.336Z,41.20
2018-07-08T11:13:45.833Z,41.40
2018-07-08T11:16:18.507Z,40.40
2018-07-08T11:18:50.814Z,38.40
2018-07-08T11:21:22.974Z,39.00
2018-07-08T11:23:55.609Z,36.20
2018-07-08T11:26:28.350Z,37.00
2018-07-08T11:29:01.208Z,33.00
2018-07-08T11:31:33.649Z,35.00
2018-07-08T11:34:06.378Z,32.00
2018-07-08T11:36:38.942Z,34.00
2018-07-08T11:39:11.411Z,32.40
2018-07-08T11:41:44.241Z,34.20
2018-07-08T11:44:17.554Z,33.60
2018-07-08T11:46:50.547Z,34.40
2018-07-08T11:49:23.380Z,35.00
2018-07-08T11:51:56.014Z,33.60
2018-07-08T11:54:28.556Z,35.00
2018-07-08T11:57:01.012Z,33.80
2018-07-08T11:59:33.300Z,34.60
2018-07-08T12:02:05.632Z,31.20
2018-07-08T12:04:37.850Z,34.80
2018-07-08T12:07:10.596Z,34.20
2018-07-08T12:09:42.613Z,35.20
2018-07-08T12:12:14.849Z,34.20
2018-07-08T12:14:47.396Z,34.60
2018-07-08T12:17:19.922Z,36.60
2018-07-08T12:19:52.050Z,38.00
2018-07-08T12:22:24.203Z,37.60
2018-07-08T12:24:56.701Z,34.80
2018-07-08T12:27:29.547Z,35.40
2018-07-08T12:30:01.427Z,37.80
2018-07-08T12:32:33.833Z,35.20
2018-07-08T12:35:06.358Z,35.60
2018-07-08T12:37:38.584Z,37.20
2018-07-08T12:40:10.939Z,38.60
2018-07-08T12:42:43.834Z,37.20
2018-07-08T12:45:16.109Z,38.00
2018-07-08T12:47:48.741Z,38.60
2018-07-08T12:50:21.384Z,37.00
2018-07-08T12:52:54.132Z,39.80
2018-07-08T12:55:26.300Z,37.00
2018-07-08T12:57:58.818Z,38.40
2018-07-08T13:00:31.369Z,38.20
2018-07-08T13:03:03.920Z,39.20
2018-07-08T13:05:36.101Z,40.40
2018-07-08T13:08:10.832Z,40.80
2018-07-08T13:10:43.042Z,43.00
2018-07-08T13:13:15.807Z,39.40
2018-07-08T13:15:48.369Z,42.20
2018-07-08T13:18:21.381Z,39.60
2018-07-08T13:20:53.815Z,39.60
2018-07-08T13:23:26.146Z,41.80
2018-07-08T13:25:58.489Z,41.60
2018-07-08T13:28:30.758Z,42.00
2018-07-08T13:31:02.693Z,42.40
2018-07-08T13:33:35.246Z,40.80
2018-07-08T13:36:07.895Z,37.40
2018-07-08T13:38:40.547Z,41.20
2018-07-08T13:41:12.971Z,41.60
2018-07-08T13:43:45.932Z,43.60
2018-07-08T13:46:18.131Z,38.60
2018-07-08T13:48:50.501Z,38.80
2018-07-08T13:51:22.927Z,41.40
2018-07-08T13:53:56.146Z,44.40
2018-07-08T13:56:28.509Z,38.40
2018-07-08T13:59:00.798Z,42.00
2018-07-08T14:01:33.495Z,40.60
2018-07-08T14:04:05.911Z,42.40
2018-07-08T14:06:38.211Z,43.00
2018-07-08T14:09:10.240Z,45.00
2018-07-08T14:11:42.858Z,44.40
2018-07-08T14:14:15.476Z,44.40
2018-07-08T14:16:47.636Z,45.60
2018-07-08T14:19:20.842Z,45.00
2018-07-08T14:21:53.686Z,44.80
2018-07-08T14:24:26.090Z,44.40
2018-07-08T14:26:58.163Z,45.00
2018-07-08T14:29:30.874Z,46.00
2018-07-08T14:32:03.168Z,44.40
2018-07-08T14:34:35.780Z,43.00
2018-07-08T14:37:08.384Z,45.40
2018-07-08T14:39:40.754Z,47.00
2018-07-08T14:42:12.942Z,45.80
2018-07-08T14:44:45.273Z,45.00
2018-07-08T14:47:17.885Z,44.80
2018-07-08T14:49:50.367Z,46.20
2018-07-08T14:52:22.610Z,47.80
2018-07-08T14:54:54.965Z,48.20
2018-07-08T14:57:27.484Z,48.40
2018-07-08T14:59:59.578Z,49.60
2018-07-08T15:02:32.751Z,47.20
2018-07-08T15:05:05.735Z,52.00
2018-07-08T15:07:37.703Z,49.00
2018-07-08T15:10:09.865Z,50.00
2018-07-08T15:12:42.104Z,49.60
2018-07-08T15:15:14.734Z,45.80
2018-07-08T15:17:47.450Z,49.60
2018-07-08T15:20:20.934Z,47.80
2018-07-08T15:22:53.183Z,47.40
2018-07-08T15:25:25.241Z,47.20
2018-07-08T15:27:57.303Z,48.00
2018-07-08T15:30:29.585Z,49.40
2018-07-08T15:33:03.064Z,50.60
2018-07-08T15:35:36.274Z,49.20
2018-07-08T15:38:12.454Z,49.00
2018-07-08T15:40:44.628Z,50.00
2018-07-08T15:43:16.842Z,52.00
2018-07-08T15:45:49.375Z,56.20
2018-07-08T15:48:21.731Z,51.20
2018-07-08T15:50:54.153Z,46.60
2018-07-08T15:53:26.273Z,47.60
2018-07-08T15:55:58.896Z,47.00
2018-07-08T15:58:31.528Z,47.00
2018-07-08T16:01:04.009Z,44.60
2018-07-08T16:03:36.192Z,47.00
2018-07-08T16:06:08.479Z,49.80
2018-07-08T16:08:40.630Z,47.80
2018-07-08T16:11:13.282Z,46.20
2018-07-08T16:13:45.641Z,47.80
2018-07-08T16:16:17.966Z,47.80
2018-07-08T16:18:50.440Z,47.40
2018-07-08T16:21:22.722Z,46.20
2018-07-08T16:23:55.130Z,44.80
2018-07-08T16:26:27.194Z,47.40
2018-07-08T16:28:59.394Z,48.60
2018-07-08T16:31:31.872Z,47.40
2018-07-08T16:34:05.235Z,46.60
2018-07-08T16:36:37.477Z,46.80
2018-07-08T16:39:09.682Z,46.20
2018-07-08T16:41:42.002Z,48.00
2018-07-08T16:44:14.093Z,49.40
2018-07-08T16:46:46.611Z,46.40
2018-07-08T16:49:18.531Z,47.40
2018-07-08T16:51:50.713Z,47.00
2018-07-08T16:54:22.835Z,46.40
2018-07-08T16:56:55.378Z,48.20
2018-07-08T16:59:28.686Z,47.80
2018-07-08T17:02:01.510Z,47.20
2018-07-08T17:04:34.390Z,45.00
2018-07-08T17:07:06.891Z,45.20
2018-07-08T17:09:39.011Z,45.20
2018-07-08T17:12:11.538Z,45.00
2018-07-08T17:14:43.891Z,45.20
2018-07-08T17:17:16.734Z,45.20
2018-07-08T17:19:49.413Z,44.60
2018-07-08T17:22:22.245Z,44.80
2018-07-08T17:24:54.401Z,45.40
2018-07-08T17:27:26.370Z,47.40
2018-07-08T17:29:58.968Z,48.00
2018-07-08T17:32:31.527Z,46.40
2018-07-08T17:35:03.723Z,45.20
2018-07-08T17:37:36.058Z,49.20
2018-07-08T17:40:08.896Z,47.40
2018-07-08T17:42:41.500Z,47.60
2018-07-08T17:45:13.488Z,49.20
2018-07-08T17:47:45.684Z,47.20
2018-07-08T17:50:17.816Z,48.00
2018-07-08T17:52:51.091Z,47.40
2018-07-08T17:55:23.303Z,47.20
2018-07-08T17:57:56.056Z,47.20
2018-07-08T18:00:29.553Z,47.20
2018-07-08T18:03:01.811Z,48.00
2018-07-08T18:05:33.597Z,48.40
2018-07-08T18:08:05.726Z,48.00
2018-07-08T18:10:37.483Z,49.20
2018-07-08T18:13:10.040Z,45.60
2018-07-08T18:15:42.230Z,45.00
2018-07-08T18:18:14.309Z,45.20
2018-07-08T18:20:46.728Z,49.20
2018-07-08T18:23:19.064Z,46.20
2018-07-08T18:25:51.559Z,50.00
2018-07-08T18:28:23.845Z,48.20
2018-07-08T18:30:55.920Z,49.00
2018-07-08T18:33:28.402Z,46.00
2018-07-08T18:36:00.760Z,48.20
2018-07-08T18:38:33.418Z,48.40
2018-07-08T18:41:06.738Z,48.20
2018-07-08T18:43:39.125Z,46.60
2018-07-08T18:46:11.549Z,49.00
2018-07-08T18:48:43.902Z,48.40
2018-07-08T18:51:16.041Z,47.00
2018-07-08T18:53:48.516Z,49.20
2018-07-08T18:56:21.083Z,49.20
2018-07-08T18:58:54.002Z,50.20
2018-07-08T19:01:26.527Z,50.60
2018-07-08T19:03:59.110Z,48.80
2018-07-08T19:06:31.348Z,47.80
2018-07-08T19:09:03.812Z,50.00
2018-07-08T19:11:35.996Z,48.40
2018-07-08T19:14:08.182Z,50.80
2018-07-08T19:16:41.024Z,51.00
2018-07-08T19:19:15.205Z,49.40
2018-07-08T19:21:47.448Z,51.60
2018-07-08T19:24:20.333Z,50.80
2018-07-08T19:26:52.491Z,45.60
2018-07-08T19:29:25.656Z,48.80
2018-07-08T19:31:57.844Z,49.60
2018-07-08T19:34:30.358Z,51.20
2018-07-08T19:37:02.564Z,50.00
2018-07-08T19:39:34.979Z,54.60
2018-07-08T19:42:07.249Z,52.80
2018-07-08T19:44:39.502Z,55.60
2018-07-08T19:47:11.407Z,54.80
2018-07-08T19:49:43.958Z,55.40
2018-07-08T19:52:16.803Z,57.20
2018-07-08T19:54:49.040Z,61.20
2018-07-08T19:57:21.467Z,60.00
2018-07-08T19:59:53.911Z,56.20
2018-07-08T20:02:26.415Z,58.80
2018-07-08T20:04:59.426Z,57.60
2018-07-08T20:07:31.528Z,57.00
2018-07-08T20:10:03.825Z,55.60
2018-07-08T20:12:36.468Z,56.20
2018-07-08T20:15:08.913Z,54.20
2018-07-08T20:17:40.976Z,52.00
2018-07-08T20:20:13.645Z,57.80
2018-07-08T20:22:45.992Z,57.40
2018-07-08T20:25:18.738Z,60.00
2018-07-08T20:27:50.962Z,53.20
2018-07-08T20:30:23.458Z,56.00
2018-07-08T20:32:55.756Z,55.60
2018-07-08T20:35:27.808Z,56.40
2018-07-08T20:37:59.996Z,55.80
2018-07-08T20:40:33.042Z,57.80
2018-07-08T20:43:05.777Z,54.00
2018-07-08T20:45:38.123Z,55.00
2018-07-08T20:48:10.440Z,57.80
2018-07-08T20:50:43.209Z,52.20
2018-07-08T20:53:16.033Z,53.40
2018-07-08T20:55:48.275Z,56.20
2018-07-08T20:58:21.636Z,52.20
2018-07-08T21:00:54.185Z,52.80
2018-07-08T21:03:26.300Z,52.00
2018-07-08T21:05:58.861Z,52.80
2018-07-08T21:08:31.247Z,53.00
2018-07-08T21:11:03.747Z,51.60
2018-07-08T21:13:36.551Z,56.20
2018-07-08T21:16:09.048Z,52.60
2018-07-08T21:18:41.928Z,52.80
2018-07-08T21:21:14.327Z,52.20
2018-07-08T21:23:46.757Z,52.20
2018-07-08T21:26:19.178Z,50.20
2018-07-08T21:28:52.457Z,51.00
2018-07-08T21:31:25.265Z,51.20
2018-07-08T21:33:57.703Z,50.40
2018-07-08T21:36:29.899Z,51.60
2018-07-08T21:39:02.925Z,52.20
2018-07-08T21:41:35.710Z,51.80
2018-07-08T21:44:08.302Z,51.00
2018-07-08T21:46:40.899Z,52.00
2018-07-08T21:49:12.910Z,51.80
2018-07-08T21:51:44.971Z,50.60
2018-07-08T21:54:16.992Z,52.60
2018-07-08T21:56:49.380Z,51.60
2018-07-08T21:59:21.662Z,51.20
2018-07-08T22:02:05.370Z,50.20
2018-07-08T22:04:37.352Z,50.60
2018-07-08T22:07:13.826Z,49.20
2018-07-08T22:09:46.433Z,48.00
2018-07-08T22:12:18.910Z,50.20
2018-07-08T22:14:50.980Z,49.20
2018-07-08T22:17:23.445Z,49.00
2018-07-08T22:19:55.780Z,49.20
2018-07-08T22:22:28.889Z,49.00
2018-07-08T22:25:01.458Z,48.40
2018-07-08T22:27:34.003Z,48.60
2018-07-08T22:30:07.073Z,51.40
2018-07-08T22:32:39.760Z,48.60
2018-07-08T22:35:11.805Z,49.00
2018-07-08T22:37:43.929Z,48.20
2018-07-08T22:40:15.927Z,49.40
2018-07-08T22:42:48.225Z,47.40
2018-07-08T22:45:20.270Z,48.40
2018-07-08T22:47:53.037Z,50.80
2018-07-08T22:50:25.181Z,47.60
2018-07-08T22:52:57.912Z,50.60
2018-07-08T22:55:30.114Z,47.80
2018-07-08T22:58:02.359Z,49.00
2018-07-08T23:00:43.607Z,48.20
2018-07-08T23:03:27.786Z,48.00
2018-07-08T23:05:59.750Z,48.20
2018-07-08T23:08:31.512Z,49.00
2018-07-08T23:11:03.769Z,47.20
2018-07-08T23:13:37.053Z,48.00
2018-07-08T23:16:09.532Z,46.60
2018-07-08T23:18:41.796Z,48.00
2018-07-08T23:21:13.957Z,48.00
2018-07-08T23:23:46.125Z,46.80
2018-07-08T23:26:18.067Z,49.20
2018-07-08T23:28:50.454Z,47.00
2018-07-08T23:31:23.628Z,47.40
2018-07-08T23:33:56.449Z,49.40
2018-07-08T23:36:28.528Z,48.60
2018-07-08T23:39:01.122Z,47.40
2018-07-08T23:41:33.420Z,48.00
2018-07-08T23:44:05.712Z,47.60
2018-07-08T23:46:37.888Z,49.00
2018-07-08T23:49:10.618Z,47.60
2018-07-08T23:51:43.065Z,47.60
2018-07-08T23:54:16.106Z,49.20
2018-07-08T23:56:48.552Z,48.00
2018-07-08T23:59:20.801Z,47.40
